Time;durP1;ratioP1;P1;durP2;ratioP2;P2;SDS_P1;SDS_P2;PMS_P1;PMS_P2;Temp;Humidity;BMP_temperature;BMP_pressure;BME280_temperature;BME280_humidity;BME280_pressure;Samples;Min_cycle;Max_cycle;Signal;HPM_P1;HPM_P2
2022/09/23 00:01:18;;;;;;;11.02;1.95;;;17.10;99.90;;;;;;5053280;28;20021;-71
2022/09/23 00:03:46;;;;;;;15.57;2.83;;;17.00;99.90;;;;;;5052676;28;20053;-72
2022/09/23 00:06:24;;;;;;;20.35;3.20;;;17.00;99.90;;;;;;5053235;28;20025;-72
2022/09/23 00:08:52;;;;;;;11.13;1.85;;;17.00;99.90;;;;;;5052860;28;20017;-74
2022/09/23 00:11:28;;;;;;;12.70;2.50;;;17.00;99.90;;;;;;5052990;28;20043;-79
2022/09/23 00:13:58;;;;;;;17.95;3.03;;;17.00;99.90;;;;;;5052921;28;20059;-72
2022/09/23 00:16:32;;;;;;;13.48;2.75;;;17.10;99.90;;;;;;5053096;28;20490;-75
2022/09/23 00:19:01;;;;;;;18.75;2.22;;;17.10;99.90;;;;;;5053111;28;20021;-83
2022/09/23 00:21:29;;;;;;;13.52;2.75;;;17.10;99.90;;;;;;5053914;28;20497;-72
2022/09/23 00:23:56;;;;;;;15.10;2.22;;;17.20;99.90;;;;;;5053559;28;20021;-85
2022/09/23 00:26:23;;;;;;;15.63;2.95;;;17.10;99.90;;;;;;5050465;28;20047;-86
2022/09/23 00:28:51;;;;;;;16.38;3.03;;;17.20;99.90;;;;;;5052684;28;20025;-76
2022/09/23 00:31:22;;;;;;;8.80;2.60;;;17.20;99.90;;;;;;5052129;28;20037;-73
2022/09/23 00:33:58;;;;;;;19.13;2.55;;;17.20;99.90;;;;;;5052317;28;20053;-72
2022/09/23 00:36:27;;;;;;;13.05;2.90;;;17.20;99.90;;;;;;5052612;28;20029;-74
2022/09/23 00:38:55;;;;;;;16.25;2.67;;;17.20;99.90;;;;;;5052473;28;20051;-82
2022/09/23 00:41:23;;;;;;;15.77;2.33;;;17.20;99.90;;;;;;5052477;28;20028;-72
2022/09/23 00:43:53;;;;;;;10.50;2.05;;;17.10;99.90;;;;;;5051690;28;20013;-72
2022/09/23 00:46:35;;;;;;;17.45;2.78;;;17.10;99.90;;;;;;5051987;28;20108;-72
2022/09/23 00:49:13;;;;;;;19.83;3.50;;;17.10;99.90;;;;;;5052392;28;20052;-74
2022/09/23 00:51:49;;;;;;;13.25;2.65;;;17.10;99.90;;;;;;5052302;28;20037;-72
2022/09/23 00:54:17;;;;;;;13.63;3.25;;;17.10;99.90;;;;;;5052530;28;20079;-73
2022/09/23 00:56:45;;;;;;;15.27;3.28;;;17.10;99.90;;;;;;5052056;28;20028;-76
2022/09/23 00:59:13;;;;;;;14.10;2.85;;;17.10;99.90;;;;;;5052093;28;20099;-72
2022/09/23 01:01:41;;;;;;;12.57;2.63;;;17.10;99.90;;;;;;5052155;28;20024;-72
2022/09/23 01:04:09;;;;;;;9.38;2.80;;;17.20;99.90;;;;;;5051880;28;20068;-71
2022/09/23 01:06:36;;;;;;;10.98;2.15;;;17.10;99.90;;;;;;5052204;28;20424;-70
2022/09/23 01:09:04;;;;;;;10.00;2.47;;;17.10;99.90;;;;;;5052110;28;20025;-71
2022/09/23 01:11:54;;;;;;;12.43;2.40;;;16.90;99.90;;;;;;5052287;28;20052;-71
2022/09/23 01:14:30;;;;;;;9.05;1.88;;;16.70;99.90;;;;;;5052073;28;20025;-78
2022/09/23 01:17:13;;;;;;;5.50;1.52;;;16.60;99.90;;;;;;5052013;28;20048;-75
2022/09/23 01:19:58;;;;;;;7.75;2.08;;;16.40;99.90;;;;;;5051813;28;20020;-71
2022/09/23 01:22:46;;;;;;;10.53;1.27;;;16.40;99.90;;;;;;5050284;28;20021;-72
2022/09/23 01:25:22;;;;;;;7.97;1.63;;;16.40;99.90;;;;;;5051018;28;20035;-73
2022/09/23 01:28:36;;;;;;;9.95;1.67;;;16.40;99.90;;;;;;5050713;28;20025;-72
2022/09/23 01:31:15;;;;;;;13.07;2.15;;;16.50;99.90;;;;;;5047607;28;20013;-71
2022/09/23 01:33:53;;;;;;;10.10;2.15;;;16.70;99.90;;;;;;5049510;28;20021;-73
2022/09/23 01:36:34;;;;;;;12.27;1.83;;;16.70;99.90;;;;;;5051982;28;20033;-72
2022/09/23 01:39:21;;;;;;;21.02;2.88;;;16.80;99.90;;;;;;5051991;28;20025;-71
2022/09/23 01:41:57;;;;;;;12.60;2.63;;;16.80;99.90;;;;;;5050406;28;20482;-71
2022/09/23 01:44:47;;;;;;;13.43;3.63;;;16.90;99.90;;;;;;5050116;28;20025;-86
2022/09/23 01:47:39;;;;;;;12.10;2.80;;;17.00;99.90;;;;;;5051907;28;20075;-77
2022/09/23 01:53:34;;;;;;;12.85;2.15;;;17.10;99.90;;;;;;5049449;28;20024;-77
2022/09/23 01:56:33;;;;;;;16.80;2.83;;;17.40;99.90;;;;;;5043006;28;20409;-76
2022/09/23 01:59:25;;;;;;;18.23;2.95;;;17.50;99.90;;;;;;5046393;28;20163;-76
2022/09/23 02:02:30;;;;;;;15.00;2.88;;;17.50;99.90;;;;;;5054305;28;20119;-78
2022/09/23 02:05:22;;;;;;;10.25;2.50;;;17.70;99.90;;;;;;5051790;28;20073;-82
2022/09/23 02:08:06;;;;;;;17.15;2.70;;;17.40;99.90;;;;;;5053976;28;20017;-78
2022/09/23 02:10:59;;;;;;;19.65;4.03;;;17.40;99.90;;;;;;5054314;28;20021;-77
2022/09/23 02:13:58;;;;;;;17.80;5.45;;;17.50;99.90;;;;;;5048439;28;20053;-74
2022/09/23 02:16:27;;;;;;;16.25;4.60;;;17.60;99.90;;;;;;5055755;28;20040;-72
2022/09/23 02:19:04;;;;;;;10.35;3.67;;;17.70;99.90;;;;;;5055614;28;20017;-74
2022/09/23 02:21:39;;;;;;;16.20;3.28;;;17.80;99.90;;;;;;5053656;28;20024;-73
2022/09/23 02:24:11;;;;;;;;;;;17.70;99.90;;;;;;5061008;28;20068;-74
2022/09/23 02:27:14;;;;;;;12.93;2.60;;;17.60;99.90;;;;;;5055240;28;19948;-73
2022/09/23 02:29:56;;;;;;;10.10;2.53;;;17.50;99.90;;;;;;5051721;28;20087;-73
2022/09/23 02:32:31;;;;;;;15.25;2.25;;;17.60;99.90;;;;;;5052070;28;20517;-73
2022/09/23 02:35:04;;;;;;;17.60;2.83;;;17.50;99.90;;;;;;5054513;28;20481;-75
2022/09/23 02:37:37;;;;;;;16.25;2.83;;;17.40;99.90;;;;;;5051613;28;20033;-74
2022/09/23 02:40:22;;;;;;;16.23;2.80;;;17.50;99.90;;;;;;5054018;28;20028;-77
2022/09/23 02:43:10;;;;;;;14.15;3.75;;;17.60;99.90;;;;;;5052775;28;20021;-75
2022/09/23 02:46:14;;;;;;;13.13;2.63;;;17.40;99.90;;;;;;5053525;28;20111;-76
2022/09/23 02:48:52;;;;;;;9.40;2.17;;;17.40;99.90;;;;;;5054552;28;20025;-77
2022/09/23 02:51:19;;;;;;;12.00;1.90;;;17.20;99.90;;;;;;5054065;28;20417;-74
2022/09/23 02:53:47;;;;;;;10.55;2.28;;;17.10;99.90;;;;;;5052107;28;20023;-73
2022/09/23 02:56:19;;;;;;;8.88;2.25;;;17.00;99.90;;;;;;5053250;28;20040;-71
2022/09/23 02:58:49;;;;;;;16.77;2.90;;;17.00;99.90;;;;;;5053048;28;20017;-80
2022/09/23 03:01:22;;;;;;;11.15;2.15;;;17.00;99.90;;;;;;5053792;28;20032;-75
2022/09/23 03:03:56;;;;;;;10.15;2.78;;;17.10;99.90;;;;;;5053780;28;20048;-71
2022/09/23 03:06:46;;;;;;;11.27;2.65;;;17.00;99.90;;;;;;5052008;28;20017;-78
2022/09/23 03:09:46;;;;;;;10.20;1.70;;;17.10;99.90;;;;;;5053404;28;20063;-73
2022/09/23 03:12:14;;;;;;;7.88;2.63;;;17.10;99.90;;;;;;5016882;28;20056;-78
2022/09/23 03:15:16;;;;;;;12.18;2.83;;;17.00;99.90;;;;;;5054105;28;20166;-72
2022/09/23 03:18:04;;;;;;;6.35;2.03;;;17.20;99.90;;;;;;5050627;28;20444;-70
2022/09/23 03:20:39;;;;;;;11.13;2.17;;;17.20;99.90;;;;;;5052782;28;20021;-87
2022/09/23 03:23:08;;;;;;;;;;;17.20;99.90;;;;;;5052529;28;20059;-75
2022/09/23 03:25:39;;;;;;;10.52;2.33;;;17.10;99.90;;;;;;5054554;28;19928;-72
2022/09/23 03:28:07;;;;;;;9.07;1.60;;;17.00;99.90;;;;;;5051630;28;20389;-73
2022/09/23 03:30:36;;;;;;;13.68;2.50;;;17.00;99.90;;;;;;5054310;28;20037;-73
2022/09/23 03:33:08;;;;;;;11.18;2.92;;;16.90;99.90;;;;;;5050996;28;20070;-72
2022/09/23 03:38:38;;;;;;;8.70;2.13;;;16.80;99.90;;;;;;5052955;28;20116;-78
2022/09/23 03:41:09;;;;;;;12.13;3.15;;;16.80;99.90;;;;;;5050289;28;20029;-75
2022/09/23 03:43:37;;;;;;;8.43;2.45;;;16.70;99.90;;;;;;5053808;28;20109;-76
2022/09/23 03:46:07;;;;;;;18.67;2.65;;;16.70;99.90;;;;;;5053956;28;20359;-75
2022/09/23 03:48:34;;;;;;;13.68;2.35;;;16.70;99.90;;;;;;5053692;28;20843;-74
2022/09/23 03:51:28;;;;;;;9.60;2.05;;;16.70;99.90;;;;;;5053598;28;20009;-77
2022/09/23 03:53:56;;;;;;;10.02;1.70;;;16.70;99.90;;;;;;5051989;28;20040;-75
2022/09/23 03:56:23;;;;;;;15.40;2.65;;;16.70;99.90;;;;;;5050908;28;20124;-74
2022/09/23 03:58:51;;;;;;;11.52;2.60;;;16.70;99.90;;;;;;5053460;28;20025;-75
2022/09/23 04:01:18;;;;;;;10.98;2.00;;;16.80;99.90;;;;;;5053016;28;20490;-75
2022/09/23 04:03:47;;;;;;;8.52;2.25;;;16.90;99.90;;;;;;5053166;28;20045;-75
2022/09/23 04:06:15;;;;;;;12.90;1.75;;;17.00;99.90;;;;;;5053636;28;20036;-79
2022/09/23 04:08:43;;;;;;;16.52;2.15;;;17.10;99.90;;;;;;5053784;28;20029;-76
2022/09/23 04:11:11;;;;;;;16.02;1.90;;;17.10;99.90;;;;;;5053426;28;20052;-76
2022/09/23 04:13:39;;;;;;;8.35;1.98;;;17.10;99.90;;;;;;5051845;28;20032;-78
2022/09/23 04:16:07;;;;;;;11.63;2.67;;;17.20;99.90;;;;;;5053205;28;20033;-75
2022/09/23 04:18:34;;;;;;;6.05;2.15;;;17.20;99.90;;;;;;5053498;28;20025;-81
2022/09/23 04:21:02;;;;;;;8.55;2.20;;;17.20;99.90;;;;;;5053118;28;20042;-79
2022/09/23 04:23:30;;;;;;;10.63;1.67;;;17.20;99.90;;;;;;5052953;28;20024;-78
2022/09/23 04:25:58;;;;;;;7.07;2.20;;;17.20;99.90;;;;;;5052952;28;20520;-76
2022/09/23 04:28:25;;;;;;;8.77;1.70;;;17.20;99.90;;;;;;5050903;28;20033;-76
2022/09/23 04:30:54;;;;;;;11.23;2.63;;;17.30;99.90;;;;;;5053222;28;20382;-75
2022/09/23 04:33:23;;;;;;;8.27;1.52;;;17.20;99.90;;;;;;5052823;28;20025;-76
2022/09/23 04:35:51;;;;;;;7.70;1.88;;;17.30;99.90;;;;;;5052648;28;20029;-76
2022/09/23 04:38:20;;;;;;;14.05;2.60;;;17.40;99.90;;;;;;5053353;28;20029;-76
2022/09/23 04:40:48;;;;;;;11.90;1.83;;;17.50;99.90;;;;;;5052593;28;20465;-75
2022/09/23 04:43:17;;;;;;;17.02;2.75;;;17.50;99.90;;;;;;5050700;28;20095;-81
2022/09/23 04:45:45;;;;;;;21.52;2.17;;;17.60;99.90;;;;;;5052623;28;20023;-77
2022/09/23 04:48:13;;;;;;;5.47;1.40;;;17.60;99.90;;;;;;5048490;28;20417;-75
2022/09/23 04:50:41;;;;;;;11.60;2.30;;;17.50;99.90;;;;;;5049800;28;20477;-74
2022/09/23 04:53:09;;;;;;;12.85;1.95;;;17.50;99.90;;;;;;5049826;28;20048;-79
2022/09/23 04:55:37;;;;;;;8.68;2.53;;;17.60;99.90;;;;;;5051194;28;20024;-78
2022/09/23 04:58:10;;;;;;;13.80;2.13;;;17.50;99.90;;;;;;5050252;28;20111;-75
2022/09/23 05:00:38;;;;;;;9.18;2.30;;;17.40;99.90;;;;;;5051765;28;20047;-75
2022/09/23 05:03:06;;;;;;;16.75;2.20;;;17.40;99.90;;;;;;5052229;28;20036;-75
2022/09/23 05:05:34;;;;;;;9.30;1.85;;;17.40;99.90;;;;;;5053087;28;20501;-74
2022/09/23 05:08:02;;;;;;;9.13;2.20;;;17.40;99.90;;;;;;5052940;28;20040;-75
2022/09/23 05:10:30;;;;;;;14.05;2.08;;;17.40;99.90;;;;;;5052763;28;20466;-72
2022/09/23 05:12:58;;;;;;;15.32;3.20;;;17.40;99.90;;;;;;5052540;28;20036;-73
2022/09/23 05:15:26;;;;;;;14.05;2.50;;;17.50;99.90;;;;;;5052807;28;20082;-78
2022/09/23 05:17:58;;;;;;;9.57;2.50;;;17.50;99.90;;;;;;5052865;28;20017;-81
2022/09/23 05:20:25;;;;;;;12.52;2.80;;;17.60;99.90;;;;;;5052038;28;20670;-74
2022/09/23 05:22:54;;;;;;;9.25;2.10;;;17.70;99.90;;;;;;5051856;28;20470;-89
2022/09/23 05:25:22;;;;;;;10.13;2.38;;;17.60;99.90;;;;;;5052452;28;20091;-81
2022/09/23 05:27:51;;;;;;;14.68;2.25;;;17.60;99.90;;;;;;5052451;28;20088;-89
2022/09/23 05:30:18;;;;;;;14.02;2.03;;;17.50;99.90;;;;;;5051442;28;20116;-80
2022/09/23 05:32:46;;;;;;;10.57;2.50;;;17.60;99.90;;;;;;5051495;28;20074;-71
2022/09/23 05:35:14;;;;;;;11.27;1.95;;;17.60;99.90;;;;;;5050704;28;20044;-79
2022/09/23 05:37:42;;;;;;;15.40;1.83;;;17.60;99.90;;;;;;5050568;28;20013;-86
2022/09/23 05:40:10;;;;;;;8.55;2.67;;;17.50;99.90;;;;;;5051246;28;20551;-81
2022/09/23 05:42:37;;;;;;;7.55;2.33;;;17.50;99.90;;;;;;5051911;28;20470;-82
2022/09/23 05:45:06;;;;;;;12.88;1.80;;;17.40;99.90;;;;;;5051316;28;20024;-82
2022/09/23 05:47:34;;;;;;;21.75;1.92;;;17.40;99.90;;;;;;5051923;28;20029;-90
2022/09/23 05:50:01;;;;;;;10.15;2.15;;;17.30;99.90;;;;;;5052204;28;20020;-79
2022/09/23 05:52:30;;;;;;;14.38;2.85;;;17.30;99.90;;;;;;5051951;28;20032;-83
2022/09/23 05:54:57;;;;;;;8.98;1.40;;;17.30;99.90;;;;;;5051045;28;20028;-85
2022/09/23 05:57:25;;;;;;;9.43;1.75;;;17.40;99.90;;;;;;5051256;28;20028;-75
2022/09/23 05:59:53;;;;;;;9.63;1.67;;;17.40;99.90;;;;;;5051601;28;20032;-83
2022/09/23 06:02:20;;;;;;;16.50;2.53;;;17.60;99.90;;;;;;5052018;28;20473;-74
2022/09/23 06:04:48;;;;;;;11.63;2.17;;;17.60;99.90;;;;;;5050442;28;20096;-78
2022/09/23 06:07:16;;;;;;;9.95;2.88;;;17.60;99.90;;;;;;5048844;28;20024;-83
2022/09/23 06:09:44;;;;;;;9.40;2.38;;;17.60;99.90;;;;;;5048846;28;20489;-76
2022/09/23 06:12:13;;;;;;;15.48;2.22;;;17.60;99.90;;;;;;5051871;28;20063;-78
2022/09/23 06:14:40;;;;;;;13.85;2.75;;;17.60;99.90;;;;;;5052324;28;20040;-73
2022/09/23 06:17:08;;;;;;;13.07;3.08;;;17.50;99.90;;;;;;5050843;28;20029;-76
2022/09/23 06:19:36;;;;;;;19.15;2.88;;;17.50;99.90;;;;;;5054616;28;20017;-77
2022/09/23 06:22:03;;;;;;;16.35;2.22;;;17.50;99.90;;;;;;5052446;28;20031;-75
2022/09/23 06:24:31;;;;;;;15.30;2.78;;;17.40;99.90;;;;;;5052363;28;20020;-77
2022/09/23 06:26:59;;;;;;;11.57;1.63;;;17.40;99.90;;;;;;5052226;28;20045;-76
2022/09/23 06:29:29;;;;;;;11.48;2.83;;;17.40;99.90;;;;;;5052301;28;20479;-75
2022/09/23 06:31:58;;;;;;;8.63;2.65;;;17.40;99.90;;;;;;5051920;28;20048;-75
2022/09/23 06:34:26;;;;;;;8.93;2.00;;;17.30;99.90;;;;;;5051227;28;20052;-77
2022/09/23 06:36:54;;;;;;;10.98;2.53;;;17.40;99.90;;;;;;5051991;28;20562;-76
2022/09/23 06:39:22;;;;;;;12.80;2.03;;;17.40;99.90;;;;;;5052341;28;20136;-78
2022/09/23 06:41:49;;;;;;;16.27;2.85;;;17.30;99.90;;;;;;5051916;28;20390;-77
2022/09/23 06:44:17;;;;;;;20.23;2.97;;;17.30;99.90;;;;;;5054219;28;20025;-80
2022/09/23 06:46:45;;;;;;;17.70;2.35;;;17.40;99.90;;;;;;5055568;28;20126;-79
2022/09/23 06:49:12;;;;;;;14.93;2.90;;;17.30;99.90;;;;;;5055479;28;20025;-79
2022/09/23 06:51:40;;;;;;;12.25;2.80;;;17.40;99.90;;;;;;5054830;28;20025;-76
2022/09/23 06:54:09;;;;;;;12.80;3.08;;;17.30;99.90;;;;;;5055305;28;20083;-76
2022/09/23 06:56:37;;;;;;;15.45;2.20;;;17.20;99.90;;;;;;5055148;28;20032;-74
2022/09/23 06:59:05;;;;;;;18.92;3.33;;;17.20;99.90;;;;;;5055493;28;20013;-77
2022/09/23 07:01:33;;;;;;;13.93;2.92;;;17.20;99.90;;;;;;5054228;28;20420;-74
2022/09/23 07:04:01;;;;;;;10.27;2.05;;;17.10;99.90;;;;;;5054125;28;20543;-75
2022/09/23 07:06:29;;;;;;;13.07;2.92;;;17.10;99.90;;;;;;5051591;28;20104;-74
2022/09/23 07:08:56;;;;;;;11.05;2.30;;;17.00;99.90;;;;;;5054136;28;20047;-74
2022/09/23 07:11:24;;;;;;;13.82;3.20;;;17.00;99.90;;;;;;5054560;28;20457;-81
2022/09/23 07:13:52;;;;;;;12.57;2.08;;;16.90;99.90;;;;;;5052809;28;20017;-74
2022/09/23 07:16:20;;;;;;;14.82;2.83;;;16.90;99.90;;;;;;5054639;28;20440;-74
2022/09/23 07:18:47;;;;;;;12.52;3.53;;;16.90;99.90;;;;;;5053991;28;20066;-75
2022/09/23 07:21:17;;;;;;;16.00;2.67;;;16.80;99.90;;;;;;5051958;28;20037;-72
2022/09/23 07:23:50;;;;;;;10.77;2.58;;;16.80;99.90;;;;;;5054067;28;20385;-75
2022/09/23 07:26:19;;;;;;;12.75;2.30;;;16.70;99.90;;;;;;5053548;28;20017;-76
2022/09/23 07:28:47;;;;;;;16.52;2.90;;;16.70;99.90;;;;;;5054324;28;20021;-72
2022/09/23 07:31:17;;;;;;;12.95;2.25;;;16.70;99.90;;;;;;5052206;28;20021;-77
2022/09/23 07:33:45;;;;;;;16.02;3.45;;;16.70;99.90;;;;;;5054411;28;20064;-72
2022/09/23 07:36:18;;;;;;;17.58;2.35;;;16.70;99.90;;;;;;5054309;28;20037;-75
2022/09/23 07:38:46;;;;;;;11.40;2.60;;;16.70;99.90;;;;;;5052276;28;20031;-72
2022/09/23 07:41:17;;;;;;;14.10;2.63;;;16.70;99.90;;;;;;5052604;28;20079;-74
2022/09/23 07:43:46;;;;;;;16.08;3.60;;;16.60;99.90;;;;;;5051930;28;20024;-76
2022/09/23 07:46:16;;;;;;;16.20;3.83;;;16.60;99.90;;;;;;5053802;28;20466;-76
2022/09/23 07:48:45;;;;;;;15.77;2.92;;;16.60;99.90;;;;;;5054084;28;20031;-73
2022/09/23 07:51:19;;;;;;;16.30;2.58;;;16.60;99.90;;;;;;5053716;28;20052;-82
2022/09/23 07:53:51;;;;;;;22.67;2.72;;;16.60;99.90;;;;;;5053751;28;20098;-76
2022/09/23 07:56:21;;;;;;;15.23;3.25;;;16.50;99.90;;;;;;5054083;28;20041;-72
2022/09/23 07:58:58;;;;;;;17.23;2.72;;;16.60;99.90;;;;;;5054268;28;20129;-75
2022/09/23 08:01:30;;;;;;;19.70;3.83;;;16.50;99.90;;;;;;5053949;28;20032;-83
2022/09/23 08:04:00;;;;;;;18.80;3.97;;;16.50;99.90;;;;;;5053461;28;20048;-72
2022/09/23 08:06:28;;;;;;;11.75;3.45;;;16.40;99.90;;;;;;5053703;28;20020;-71
2022/09/23 08:09:00;;;;;;;14.40;3.53;;;16.50;99.90;;;;;;5053508;28;20025;-72
2022/09/23 08:11:30;;;;;;;12.50;2.90;;;16.40;99.90;;;;;;5053432;28;20017;-77
2022/09/23 08:13:57;;;;;;;15.38;2.97;;;16.40;99.90;;;;;;5050690;28;20029;-72
2022/09/23 08:16:25;;;;;;;11.73;2.47;;;16.40;99.90;;;;;;5052692;28;20043;-71
2022/09/23 08:18:53;;;;;;;16.85;2.75;;;16.40;99.90;;;;;;5053178;28;20436;-72
2022/09/23 08:21:22;;;;;;;13.52;2.83;;;16.40;99.90;;;;;;5053499;28;20060;-74
2022/09/23 08:23:52;;;;;;;14.90;3.10;;;16.40;99.90;;;;;;5052373;28;20025;-74
2022/09/23 08:26:20;;;;;;;18.90;3.88;;;16.30;99.90;;;;;;5053738;28;20059;-75
2022/09/23 08:28:49;;;;;;;11.50;2.65;;;16.30;99.90;;;;;;5052936;28;20082;-81
2022/09/23 08:31:16;;;;;;;11.15;2.63;;;16.40;99.90;;;;;;5053898;28;20028;-81
2022/09/23 08:33:44;;;;;;;11.75;2.83;;;16.40;99.90;;;;;;5053814;28;20382;-82
2022/09/23 08:36:12;;;;;;;18.02;3.25;;;16.30;99.90;;;;;;5053261;28;20131;-77
2022/09/23 08:38:40;;;;;;;14.77;2.92;;;16.30;99.90;;;;;;5053185;28;20450;-78
2022/09/23 08:41:13;;;;;;;21.70;3.03;;;16.30;99.90;;;;;;5052129;28;20144;-79
2022/09/23 08:43:48;;;;;;;9.30;2.53;;;16.30;99.90;;;;;;5051765;28;20088;-82
2022/09/23 08:46:29;;;;;;;14.50;2.83;;;16.40;99.90;;;;;;5051839;28;20477;-80
2022/09/23 08:48:58;;;;;;;19.67;4.30;;;16.30;99.90;;;;;;5052901;28;20104;-81
2022/09/23 08:52:05;;;;;;;18.08;3.13;;;16.30;99.90;;;;;;5052194;28;20392;-80
2022/09/23 08:54:33;;;;;;;27.38;4.38;;;16.30;99.90;;;;;;4982359;28;20062;-76
2022/09/23 08:57:04;;;;;;;16.05;2.80;;;16.30;99.90;;;;;;5035424;28;20028;-72
2022/09/23 08:59:44;;;;;;;17.08;3.72;;;16.30;99.90;;;;;;5036622;28;20021;-79
2022/09/23 09:02:22;;;;;;;20.35;4.15;;;16.30;99.90;;;;;;5032272;28;20052;-79
2022/09/23 09:04:56;;;;;;;12.63;3.17;;;16.30;99.90;;;;;;5051279;28;20029;-79
2022/09/23 09:07:31;;;;;;;20.83;4.28;;;16.30;99.90;;;;;;5052295;28;20025;-79
2022/09/23 09:10:20;;;;;;;24.25;3.67;;;16.30;99.90;;;;;;5052920;28;20045;-80
2022/09/23 09:13:06;;;;;;;14.85;3.72;;;16.30;99.90;;;;;;5052416;28;20021;-79
2022/09/23 09:15:47;;;;;;;13.55;2.83;;;16.30;99.90;;;;;;5032737;28;20061;-80
2022/09/23 09:18:24;;;;;;;19.83;3.47;;;16.30;99.90;;;;;;5034839;28;20104;-78
2022/09/23 09:21:14;;;;;;;13.30;2.83;;;16.20;99.90;;;;;;5034726;28;20100;-76
2022/09/23 09:23:53;;;;;;;15.07;3.42;;;16.30;99.90;;;;;;5052612;28;20020;-78
2022/09/23 09:26:33;;;;;;;13.48;2.90;;;16.30;99.90;;;;;;5051795;28;20940;-79
2022/09/23 09:29:37;;;;;;;11.32;3.72;;;16.30;99.90;;;;;;5051680;28;20047;-76
2022/09/23 09:32:20;;;;;;;16.10;3.60;;;16.30;99.90;;;;;;5052437;28;20505;-80
2022/09/23 09:34:55;;;;;;;14.15;4.38;;;16.30;99.90;;;;;;5051882;28;20086;-80
2022/09/23 09:37:45;;;;;;;14.15;3.90;;;16.30;99.90;;;;;;5052903;28;20049;-80
2022/09/23 09:40:18;;;;;;;14.20;3.60;;;16.30;99.90;;;;;;5047419;28;20108;-80
2022/09/23 09:42:50;;;;;;;14.18;4.35;;;16.30;99.90;;;;;;5052301;28;20505;-78
2022/09/23 09:45:36;;;;;;;16.27;5.25;;;16.30;99.90;;;;;;5051536;28;20025;-80
2022/09/23 09:48:16;;;;;;;15.57;4.53;;;16.20;99.90;;;;;;5050691;28;20063;-80
2022/09/23 09:50:53;;;;;;;22.75;4.57;;;16.20;99.90;;;;;;5051398;28;20095;-79
2022/09/23 09:53:34;;;;;;;13.27;3.20;;;16.30;99.90;;;;;;5051548;28;20500;-76
2022/09/23 09:56:11;;;;;;;12.15;3.92;;;16.30;99.90;;;;;;5052243;28;20468;-80
2022/09/23 09:58:51;;;;;;;16.95;3.90;;;16.30;99.90;;;;;;5052775;28;20021;-78
2022/09/23 10:01:30;;;;;;;19.67;4.18;;;16.20;99.90;;;;;;5052839;28;20029;-76
2022/09/23 10:04:19;;;;;;;16.42;5.05;;;16.30;99.90;;;;;;5052226;28;20504;-73
2022/09/23 10:07:08;;;;;;;22.58;4.95;;;16.30;99.90;;;;;;5032996;28;20040;-80
2022/09/23 10:09:38;;;;;;;14.95;3.65;;;16.30;99.90;;;;;;5034505;28;20374;-79
2022/09/23 10:12:20;;;;;;;23.60;4.82;;;16.20;99.90;;;;;;5033545;28;20083;-72
2022/09/23 10:14:51;;;;;;;20.13;4.15;;;16.20;99.90;;;;;;5036603;28;20025;-81
2022/09/23 10:17:23;;;;;;;14.75;4.25;;;16.10;99.90;;;;;;5033572;28;20224;-76
2022/09/23 10:20:01;;;;;;;14.43;3.72;;;16.10;99.90;;;;;;5040462;28;20017;-80
2022/09/23 10:22:35;;;;;;;18.17;5.80;;;16.20;99.90;;;;;;5037311;28;20112;-77
2022/09/23 10:25:08;;;;;;;14.30;3.75;;;16.10;99.90;;;;;;5038737;28;20115;-80
2022/09/23 10:27:37;;;;;;;13.52;3.88;;;16.20;99.90;;;;;;5036587;28;20025;-79
2022/09/23 10:30:26;;;;;;;15.48;3.50;;;16.20;99.90;;;;;;5036452;28;20370;-80
2022/09/23 10:32:55;;;;;;;19.63;3.97;;;16.20;99.90;;;;;;5045246;28;20101;-80
2022/09/23 10:35:25;;;;;;;14.70;3.90;;;16.20;99.90;;;;;;5061173;28;20067;-72
2022/09/23 10:38:02;;;;;;;10.90;3.90;;;16.20;99.90;;;;;;5087747;28;20024;-72
2022/09/23 10:46:59;;;;;;;17.55;4.88;;;16.20;99.90;;;;;;5043311;28;20586;-73
2022/09/23 10:49:50;;;;;;;18.52;5.38;;;16.20;99.90;;;;;;5054643;28;20033;-80
2022/09/23 10:52:24;;;;;;;11.05;4.07;;;16.20;99.90;;;;;;5054822;28;20021;-76
2022/09/23 10:55:26;;;;;;;12.88;5.35;;;16.10;99.90;;;;;;5055605;28;20017;-78
2022/09/23 10:58:21;;;;;;;20.27;4.20;;;16.10;99.90;;;;;;5061624;28;20020;-79
2022/09/23 11:01:12;;;;;;;14.45;5.40;;;16.10;99.90;;;;;;5075207;28;20048;-77
2022/09/23 11:03:49;;;;;;;15.60;5.97;;;16.10;99.90;;;;;;5063996;28;20514;-78
2022/09/23 11:06:20;;;;;;;21.45;5.95;;;16.20;99.90;;;;;;5074668;28;20070;-78
2022/09/23 11:09:15;;;;;;;14.10;6.13;;;16.10;99.90;;;;;;5075713;28;20483;-79
2022/09/23 11:12:09;;;;;;;15.88;7.10;;;16.10;99.90;;;;;;5051261;28;20032;-80
2022/09/23 11:14:55;;;;;;;17.20;6.40;;;16.10;99.90;;;;;;5074786;28;20020;-83
2022/09/23 11:17:34;;;;;;;18.65;7.20;;;16.10;99.90;;;;;;5074059;28;20098;-73
2022/09/23 11:20:21;;;;;;;16.35;7.57;;;16.10;99.90;;;;;;5072430;28;20024;-72
2022/09/23 11:23:32;;;;;;;11.20;6.85;;;16.00;99.90;;;;;;5073756;28;20108;-77
2022/09/23 11:26:30;;;;;;;19.67;7.45;;;16.00;99.90;;;;;;5058792;28;20037;-78
2022/09/23 11:29:04;;;;;;;15.02;6.55;;;16.00;99.90;;;;;;5070037;28;20405;-76
2022/09/23 11:31:41;;;;;;;18.92;7.07;;;16.00;99.90;;;;;;5064979;28;20021;-77
2022/09/23 11:34:33;;;;;;;21.15;7.22;;;16.00;99.90;;;;;;5054354;28;20024;-76
2022/09/23 11:37:16;;;;;;;24.20;7.28;;;16.00;99.90;;;;;;5054347;28;20035;-77
2022/09/23 11:39:57;;;;;;;18.80;6.53;;;16.00;99.90;;;;;;5051735;28;20048;-76
2022/09/23 11:42:33;;;;;;;19.48;7.30;;;15.90;99.90;;;;;;5054191;28;20036;-78
2022/09/23 11:45:08;;;;;;;;;;;16.00;99.90;;;;;;5059863;28;20024;-73
2022/09/23 11:47:44;;;;;;;14.13;7.32;;;15.90;99.90;;;;;;5057726;28;20380;-79
2022/09/23 11:50:49;;;;;;;17.98;7.80;;;15.90;99.90;;;;;;5058697;28;20013;-78
2022/09/23 11:53:27;;;;;;;16.95;7.20;;;15.90;99.90;;;;;;5052397;28;20367;-80
2022/09/23 11:56:35;;;;;;;25.17;8.13;;;16.00;99.90;;;;;;5057918;28;20396;-77
2022/09/23 11:59:31;;;;;;;19.65;8.00;;;15.90;99.90;;;;;;5024756;28;20116;-79
2022/09/23 12:02:13;;;;;;;19.85;8.32;;;16.00;99.90;;;;;;5027495;28;20075;-79
2022/09/23 12:04:46;;;;;;;23.90;7.95;;;16.00;99.90;;;;;;5038282;28;20045;-80
2022/09/23 12:07:21;;;;;;;18.00;7.60;;;15.90;99.90;;;;;;5074184;28;20424;-82
2022/09/23 12:10:15;;;;;;;21.35;8.70;;;16.00;99.90;;;;;;5074298;28;20021;-85
2022/09/23 12:13:16;;;;;;;21.67;8.45;;;15.90;99.90;;;;;;5070796;28;20029;-77
2022/09/23 12:15:53;;;;;;;23.88;8.38;;;16.00;99.90;;;;;;5052433;28;20438;-80
2022/09/23 12:18:39;;;;;;;21.00;9.13;;;15.90;99.90;;;;;;5051867;28;20078;-79
2022/09/23 12:21:15;;;;;;;21.20;8.95;;;16.00;99.90;;;;;;5052777;28;20033;-74
2022/09/23 12:24:05;;;;;;;;;;;16.00;99.90;;;;;;5056033;28;20029;-75
2022/09/23 12:26:34;;;;;;;27.58;8.90;;;16.00;99.90;;;;;;5058603;28;20364;-76
2022/09/23 12:29:05;;;;;;;14.07;7.93;;;15.90;99.90;;;;;;5060364;28;20037;-73
2022/09/23 12:31:37;;;;;;;22.10;9.23;;;15.90;99.90;;;;;;5069240;28;20020;-76
2022/09/23 12:34:47;;;;;;;22.08;8.85;;;15.90;99.90;;;;;;5053841;28;20028;-76
2022/09/23 12:37:33;;;;;;;19.83;9.00;;;15.90;99.90;;;;;;5050421;28;20044;-75
2022/09/23 12:40:15;;;;;;;20.08;8.07;;;15.90;99.90;;;;;;5054332;28;20032;-76
2022/09/23 12:42:45;;;;;;;16.55;7.78;;;15.90;99.90;;;;;;5054623;28;20025;-77
2022/09/23 12:45:33;;;;;;;23.05;9.45;;;15.80;99.90;;;;;;5054050;28;20025;-76
2022/09/23 12:48:24;;;;;;;21.90;9.68;;;15.80;99.90;;;;;;5054154;28;20028;-76
2022/09/23 12:51:18;;;;;;;18.67;8.38;;;15.80;99.90;;;;;;5053972;28;20478;-77
2022/09/23 12:53:49;;;;;;;16.55;8.25;;;15.70;99.90;;;;;;5052025;28;20041;-77
2022/09/23 12:56:19;;;;;;;18.98;8.32;;;15.70;99.90;;;;;;5054134;28;20116;-75
2022/09/23 12:58:49;;;;;;;15.95;8.38;;;15.70;99.90;;;;;;5053856;28;20025;-76
2022/09/23 13:01:24;;;;;;;20.77;8.57;;;15.70;99.90;;;;;;5053942;28;20052;-77
2022/09/23 13:06:57;;;;;;;17.15;8.00;;;15.60;99.90;;;;;;5054410;28;20032;-76
2022/09/23 13:09:31;;;;;;;20.45;9.88;;;15.60;99.90;;;;;;5052579;28;20505;-76
2022/09/23 13:12:06;;;;;;;19.80;8.18;;;15.60;99.90;;;;;;5053867;28;20040;-76
2022/09/23 13:14:36;;;;;;;16.48;7.72;;;15.60;99.90;;;;;;5054556;28;20100;-76
2022/09/23 13:17:05;;;;;;;14.35;7.97;;;15.50;99.90;;;;;;5053683;28;20037;-76
2022/09/23 13:19:32;;;;;;;16.33;8.48;;;15.50;99.90;;;;;;5036618;28;20478;-77
2022/09/23 13:22:09;;;;;;;13.40;7.68;;;15.50;99.90;;;;;;5052504;28;20083;-77
2022/09/23 13:24:42;;;;;;;14.40;8.23;;;15.60;99.90;;;;;;5053351;28;20021;-77
2022/09/23 13:27:30;;;;;;;16.65;8.30;;;15.50;99.90;;;;;;5052991;28;20021;-76
2022/09/23 13:30:24;;;;;;;14.68;8.32;;;15.50;99.90;;;;;;5051358;28;20028;-76
2022/09/23 13:33:15;;;;;;;15.63;8.02;;;15.50;99.90;;;;;;5050471;28;20021;-77
2022/09/23 13:35:51;;;;;;;15.57;8.15;;;15.50;99.90;;;;;;5051936;28;20025;-77